sensor_id;sensor_type;location;lat;lon;timestamp;P1;durP1;ratioP1;P2;durP2;ratioP2
5121;SDS011;2563;52.242;7.956;2022-10-16T00:01:07;16.67;;;4.60;;
5121;SDS011;2563;52.242;7.956;2022-10-16T00:03:37;8.80;;;4.40;;
5121;SDS011;2563;52.242;7.956;2022-10-16T00:06:03;8.70;;;4.13;;
5121;SDS011;2563;52.242;7.956;2022-10-16T00:08:30;12.97;;;4.03;;
5121;SDS011;2563;52.242;7.956;2022-10-16T00:10:59;9.57;;;4.03;;
5121;SDS011;2563;52.242;7.956;2022-10-16T00:13:29;9.37;;;4.20;;
5121;SDS011;2563;52.242;7.956;2022-10-16T00:15:56;10.77;;;4.67;;
5121;SDS011;2563;52.242;7.956;2022-10-16T00:18:22;9.50;;;4.30;;
5121;SDS011;2563;52.242;7.956;2022-10-16T00:20:49;20.50;;;6.33;;
5121;SDS011;2563;52.242;7.956;2022-10-16T00:23:14;9.50;;;4.13;;
5121;SDS011;2563;52.242;7.956;2022-10-16T00:25:39;10.17;;;4.00;;
5121;SDS011;2563;52.242;7.956;2022-10-16T00:28:05;10.30;;;5.40;;
5121;SDS011;2563;52.242;7.956;2022-10-16T00:30:30;12.13;;;5.30;;
5121;SDS011;2563;52.242;7.956;2022-10-16T00:32:56;10.90;;;4.77;;
5121;SDS011;2563;52.242;7.956;2022-10-16T00:35:21;14.90;;;5.07;;
5121;SDS011;2563;52.242;7.956;2022-10-16T00:37:47;10.43;;;5.00;;
5121;SDS011;2563;52.242;7.956;2022-10-16T00:40:12;9.50;;;4.70;;
5121;SDS011;2563;52.242;7.956;2022-10-16T00:42:38;12.30;;;5.10;;
5121;SDS011;2563;52.242;7.956;2022-10-16T00:45:03;10.97;;;5.13;;
5121;SDS011;2563;52.242;7.956;2022-10-16T00:47:34;14.07;;;5.73;;
5121;SDS011;2563;52.242;7.956;2022-10-16T00:50:09;11.40;;;6.30;;
5121;SDS011;2563;52.242;7.956;2022-10-16T00:52:41;15.30;;;5.53;;
5121;SDS011;2563;52.242;7.956;2022-10-16T00:55:10;13.63;;;5.60;;
5121;SDS011;2563;52.242;7.956;2022-10-16T00:57:36;11.63;;;5.90;;
5121;SDS011;2563;52.242;7.956;2022-10-16T01:00:07;11.90;;;5.50;;
5121;SDS011;2563;52.242;7.956;2022-10-16T01:02:35;9.80;;;5.40;;
5121;SDS011;2563;52.242;7.956;2022-10-16T01:05:00;12.87;;;5.33;;
5121;SDS011;2563;52.242;7.956;2022-10-16T01:10:35;11.40;;;5.67;;
5121;SDS011;2563;52.242;7.956;2022-10-16T01:13:12;11.23;;;5.30;;
5121;SDS011;2563;52.242;7.956;2022-10-16T01:18:53;14.70;;;6.00;;
5121;SDS011;2563;52.242;7.956;2022-10-16T01:21:22;12.30;;;5.20;;
5121;SDS011;2563;52.242;7.956;2022-10-16T01:37:56;11.93;;;6.10;;
5121;SDS011;2563;52.242;7.956;2022-10-16T01:40:38;12.67;;;5.57;;
5121;SDS011;2563;52.242;7.956;2022-10-16T01:43:20;10.40;;;5.70;;
5121;SDS011;2563;52.242;7.956;2022-10-16T01:45:50;10.57;;;5.73;;
5121;SDS011;2563;52.242;7.956;2022-10-16T01:48:17;14.40;;;5.83;;
5121;SDS011;2563;52.242;7.956;2022-10-16T01:50:44;10.50;;;5.30;;
5121;SDS011;2563;52.242;7.956;2022-10-16T01:53:19;16.50;;;6.23;;
5121;SDS011;2563;52.242;7.956;2022-10-16T01:55:45;11.23;;;5.73;;
5121;SDS011;2563;52.242;7.956;2022-10-16T01:58:14;15.63;;;5.67;;
5121;SDS011;2563;52.242;7.956;2022-10-16T02:00:41;12.17;;;6.13;;
5121;SDS011;2563;52.242;7.956;2022-10-16T02:03:09;13.83;;;5.70;;
5121;SDS011;2563;52.242;7.956;2022-10-16T02:05:41;13.43;;;5.93;;
5121;SDS011;2563;52.242;7.956;2022-10-16T02:08:07;11.73;;;5.70;;
5121;SDS011;2563;52.242;7.956;2022-10-16T02:10:34;11.33;;;6.10;;
5121;SDS011;2563;52.242;7.956;2022-10-16T02:13:06;13.93;;;5.90;;
5121;SDS011;2563;52.242;7.956;2022-10-16T02:15:35;13.23;;;5.93;;
5121;SDS011;2563;52.242;7.956;2022-10-16T02:18:01;15.27;;;6.00;;
5121;SDS011;2563;52.242;7.956;2022-10-16T02:20:28;14.57;;;6.53;;
5121;SDS011;2563;52.242;7.956;2022-10-16T02:22:59;10.63;;;5.57;;
5121;SDS011;2563;52.242;7.956;2022-10-16T02:25:27;15.53;;;6.70;;
5121;SDS011;2563;52.242;7.956;2022-10-16T02:30:51;13.40;;;6.53;;
5121;SDS011;2563;52.242;7.956;2022-10-16T02:33:26;14.90;;;5.37;;
5121;SDS011;2563;52.242;7.956;2022-10-16T02:35:54;20.30;;;6.70;;
5121;SDS011;2563;52.242;7.956;2022-10-16T02:38:20;13.00;;;6.20;;
5121;SDS011;2563;52.242;7.956;2022-10-16T02:40:47;10.30;;;5.53;;
5121;SDS011;2563;52.242;7.956;2022-10-16T02:43:13;10.80;;;5.60;;
5121;SDS011;2563;52.242;7.956;2022-10-16T02:45:38;15.13;;;5.40;;
5121;SDS011;2563;52.242;7.956;2022-10-16T02:48:04;15.50;;;6.50;;
5121;SDS011;2563;52.242;7.956;2022-10-16T02:50:30;13.53;;;5.97;;
5121;SDS011;2563;52.242;7.956;2022-10-16T02:52:55;10.70;;;5.60;;
5121;SDS011;2563;52.242;7.956;2022-10-16T02:55:21;9.70;;;5.57;;
5121;SDS011;2563;52.242;7.956;2022-10-16T02:57:46;9.27;;;5.17;;
5121;SDS011;2563;52.242;7.956;2022-10-16T03:00:13;11.67;;;5.37;;
5121;SDS011;2563;52.242;7.956;2022-10-16T03:02:41;11.73;;;5.30;;
5121;SDS011;2563;52.242;7.956;2022-10-16T03:05:07;17.57;;;6.70;;
5121;SDS011;2563;52.242;7.956;2022-10-16T03:07:34;13.57;;;5.50;;
5121;SDS011;2563;52.242;7.956;2022-10-16T03:10:02;16.13;;;5.60;;
5121;SDS011;2563;52.242;7.956;2022-10-16T03:12:29;15.10;;;5.10;;
5121;SDS011;2563;52.242;7.956;2022-10-16T03:14:55;12.13;;;5.87;;
5121;SDS011;2563;52.242;7.956;2022-10-16T03:17:22;11.17;;;5.80;;
5121;SDS011;2563;52.242;7.956;2022-10-16T03:19:48;11.20;;;4.70;;
5121;SDS011;2563;52.242;7.956;2022-10-16T03:22:13;11.10;;;5.23;;
5121;SDS011;2563;52.242;7.956;2022-10-16T03:24:38;9.30;;;4.90;;
5121;SDS011;2563;52.242;7.956;2022-10-16T03:27:04;9.33;;;5.20;;
5121;SDS011;2563;52.242;7.956;2022-10-16T03:29:29;12.20;;;5.00;;
5121;SDS011;2563;52.242;7.956;2022-10-16T03:31:55;11.07;;;4.70;;
5121;SDS011;2563;52.242;7.956;2022-10-16T03:34:21;12.90;;;5.37;;
5121;SDS011;2563;52.242;7.956;2022-10-16T03:36:47;13.00;;;5.00;;
5121;SDS011;2563;52.242;7.956;2022-10-16T03:39:12;7.23;;;3.93;;
5121;SDS011;2563;52.242;7.956;2022-10-16T03:41:37;13.03;;;5.00;;
5121;SDS011;2563;52.242;7.956;2022-10-16T03:44:03;10.97;;;4.83;;
5121;SDS011;2563;52.242;7.956;2022-10-16T03:46:28;8.30;;;4.10;;
5121;SDS011;2563;52.242;7.956;2022-10-16T03:48:54;8.47;;;4.10;;
5121;SDS011;2563;52.242;7.956;2022-10-16T03:51:19;10.93;;;4.77;;
5121;SDS011;2563;52.242;7.956;2022-10-16T03:53:45;12.13;;;4.10;;
5121;SDS011;2563;52.242;7.956;2022-10-16T03:56:10;7.87;;;4.70;;
5121;SDS011;2563;52.242;7.956;2022-10-16T03:58:35;8.50;;;4.10;;
5121;SDS011;2563;52.242;7.956;2022-10-16T04:01:01;7.37;;;3.70;;
5121;SDS011;2563;52.242;7.956;2022-10-16T04:03:26;10.53;;;4.27;;
5121;SDS011;2563;52.242;7.956;2022-10-16T04:05:51;8.53;;;3.97;;
5121;SDS011;2563;52.242;7.956;2022-10-16T04:08:17;11.07;;;4.90;;
5121;SDS011;2563;52.242;7.956;2022-10-16T04:10:43;10.27;;;3.87;;
5121;SDS011;2563;52.242;7.956;2022-10-16T04:13:08;7.37;;;3.90;;
5121;SDS011;2563;52.242;7.956;2022-10-16T04:15:34;7.67;;;3.37;;
5121;SDS011;2563;52.242;7.956;2022-10-16T04:17:59;9.17;;;4.47;;
5121;SDS011;2563;52.242;7.956;2022-10-16T04:20:24;7.50;;;3.37;;
5121;SDS011;2563;52.242;7.956;2022-10-16T04:22:50;7.63;;;4.20;;
5121;SDS011;2563;52.242;7.956;2022-10-16T04:25:15;7.20;;;3.03;;
5121;SDS011;2563;52.242;7.956;2022-10-16T04:27:41;9.20;;;3.50;;
5121;SDS011;2563;52.242;7.956;2022-10-16T04:30:06;7.20;;;3.70;;
5121;SDS011;2563;52.242;7.956;2022-10-16T04:32:32;9.20;;;3.17;;
5121;SDS011;2563;52.242;7.956;2022-10-16T04:34:57;9.47;;;3.70;;
5121;SDS011;2563;52.242;7.956;2022-10-16T04:37:23;6.77;;;3.17;;
5121;SDS011;2563;52.242;7.956;2022-10-16T04:39:50;6.50;;;3.23;;
5121;SDS011;2563;52.242;7.956;2022-10-16T04:42:15;7.00;;;3.40;;
5121;SDS011;2563;52.242;7.956;2022-10-16T04:44:41;9.90;;;3.80;;
5121;SDS011;2563;52.242;7.956;2022-10-16T04:47:06;8.93;;;3.00;;
5121;SDS011;2563;52.242;7.956;2022-10-16T04:49:31;7.40;;;2.93;;
5121;SDS011;2563;52.242;7.956;2022-10-16T04:51:56;6.67;;;3.00;;
5121;SDS011;2563;52.242;7.956;2022-10-16T04:54:22;10.40;;;3.33;;
5121;SDS011;2563;52.242;7.956;2022-10-16T04:56:47;8.70;;;3.53;;
5121;SDS011;2563;52.242;7.956;2022-10-16T04:59:15;7.00;;;3.40;;
5121;SDS011;2563;52.242;7.956;2022-10-16T05:01:40;12.43;;;2.77;;
5121;SDS011;2563;52.242;7.956;2022-10-16T05:04:05;9.50;;;3.10;;
5121;SDS011;2563;52.242;7.956;2022-10-16T05:06:31;6.10;;;2.70;;
5121;SDS011;2563;52.242;7.956;2022-10-16T05:08:56;6.20;;;2.90;;
5121;SDS011;2563;52.242;7.956;2022-10-16T05:11:21;8.83;;;3.37;;
5121;SDS011;2563;52.242;7.956;2022-10-16T05:13:47;6.97;;;2.90;;
5121;SDS011;2563;52.242;7.956;2022-10-16T05:16:12;12.80;;;3.93;;
5121;SDS011;2563;52.242;7.956;2022-10-16T05:18:37;6.70;;;3.00;;
5121;SDS011;2563;52.242;7.956;2022-10-16T05:21:02;5.50;;;2.73;;
5121;SDS011;2563;52.242;7.956;2022-10-16T05:23:28;7.30;;;3.10;;
5121;SDS011;2563;52.242;7.956;2022-10-16T05:25:54;7.90;;;2.77;;
5121;SDS011;2563;52.242;7.956;2022-10-16T05:28:22;7.23;;;2.80;;
5121;SDS011;2563;52.242;7.956;2022-10-16T05:30:52;6.47;;;2.70;;
5121;SDS011;2563;52.242;7.956;2022-10-16T05:33:22;5.73;;;2.77;;
5121;SDS011;2563;52.242;7.956;2022-10-16T05:35:50;5.60;;;3.00;;
5121;SDS011;2563;52.242;7.956;2022-10-16T05:38:16;5.77;;;2.53;;
5121;SDS011;2563;52.242;7.956;2022-10-16T05:40:42;8.63;;;3.40;;
5121;SDS011;2563;52.242;7.956;2022-10-16T05:43:07;8.33;;;3.00;;
5121;SDS011;2563;52.242;7.956;2022-10-16T05:45:33;7.07;;;2.93;;
5121;SDS011;2563;52.242;7.956;2022-10-16T05:47:59;11.83;;;3.10;;
5121;SDS011;2563;52.242;7.956;2022-10-16T05:50:25;6.33;;;2.73;;
5121;SDS011;2563;52.242;7.956;2022-10-16T05:52:50;5.33;;;2.60;;
5121;SDS011;2563;52.242;7.956;2022-10-16T05:55:16;6.20;;;2.40;;
5121;SDS011;2563;52.242;7.956;2022-10-16T05:57:41;5.93;;;2.90;;
5121;SDS011;2563;52.242;7.956;2022-10-16T06:00:06;10.30;;;2.13;;
5121;SDS011;2563;52.242;7.956;2022-10-16T06:02:32;9.87;;;3.07;;
5121;SDS011;2563;52.242;7.956;2022-10-16T06:04:58;5.97;;;2.40;;
5121;SDS011;2563;52.242;7.956;2022-10-16T06:07:23;5.93;;;2.33;;
5121;SDS011;2563;52.242;7.956;2022-10-16T06:09:49;6.50;;;2.50;;
5121;SDS011;2563;52.242;7.956;2022-10-16T06:12:18;5.70;;;2.63;;
5121;SDS011;2563;52.242;7.956;2022-10-16T06:14:44;6.07;;;2.87;;
5121;SDS011;2563;52.242;7.956;2022-10-16T06:17:12;4.50;;;2.30;;
5121;SDS011;2563;52.242;7.956;2022-10-16T06:19:38;5.33;;;2.10;;
5121;SDS011;2563;52.242;7.956;2022-10-16T06:22:03;6.17;;;2.53;;
5121;SDS011;2563;52.242;7.956;2022-10-16T06:24:29;6.13;;;2.13;;
5121;SDS011;2563;52.242;7.956;2022-10-16T06:26:54;4.03;;;1.80;;
5121;SDS011;2563;52.242;7.956;2022-10-16T06:29:20;8.60;;;2.13;;
5121;SDS011;2563;52.242;7.956;2022-10-16T06:31:45;4.60;;;2.60;;
5121;SDS011;2563;52.242;7.956;2022-10-16T06:34:10;4.60;;;2.20;;
5121;SDS011;2563;52.242;7.956;2022-10-16T06:36:37;7.20;;;2.70;;
5121;SDS011;2563;52.242;7.956;2022-10-16T06:39:03;5.20;;;2.47;;
5121;SDS011;2563;52.242;7.956;2022-10-16T06:41:28;7.67;;;2.80;;
5121;SDS011;2563;52.242;7.956;2022-10-16T06:43:54;5.43;;;2.27;;
5121;SDS011;2563;52.242;7.956;2022-10-16T06:46:20;5.00;;;2.27;;
5121;SDS011;2563;52.242;7.956;2022-10-16T06:48:47;4.97;;;2.30;;
5121;SDS011;2563;52.242;7.956;2022-10-16T06:51:14;4.73;;;2.07;;
5121;SDS011;2563;52.242;7.956;2022-10-16T06:53:44;7.20;;;2.43;;
5121;SDS011;2563;52.242;7.956;2022-10-16T06:56:15;4.50;;;2.60;;
5121;SDS011;2563;52.242;7.956;2022-10-16T06:58:43;5.43;;;1.80;;
5121;SDS011;2563;52.242;7.956;2022-10-16T07:01:09;7.10;;;2.10;;
5121;SDS011;2563;52.242;7.956;2022-10-16T07:03:36;9.33;;;2.90;;
5121;SDS011;2563;52.242;7.956;2022-10-16T07:06:03;8.53;;;2.57;;
5121;SDS011;2563;52.242;7.956;2022-10-16T07:08:30;4.43;;;2.20;;
5121;SDS011;2563;52.242;7.956;2022-10-16T07:10:58;6.57;;;2.00;;
5121;SDS011;2563;52.242;7.956;2022-10-16T07:13:24;8.00;;;2.23;;
5121;SDS011;2563;52.242;7.956;2022-10-16T07:15:50;6.03;;;2.13;;
5121;SDS011;2563;52.242;7.956;2022-10-16T07:18:15;10.30;;;3.60;;
5121;SDS011;2563;52.242;7.956;2022-10-16T07:20:41;10.00;;;2.37;;
5121;SDS011;2563;52.242;7.956;2022-10-16T07:23:06;7.80;;;3.17;;
5121;SDS011;2563;52.242;7.956;2022-10-16T07:25:31;7.27;;;2.67;;
5121;SDS011;2563;52.242;7.956;2022-10-16T07:27:57;6.23;;;2.60;;
5121;SDS011;2563;52.242;7.956;2022-10-16T07:30:22;5.03;;;2.37;;
5121;SDS011;2563;52.242;7.956;2022-10-16T07:32:47;10.13;;;2.90;;
5121;SDS011;2563;52.242;7.956;2022-10-16T07:35:13;7.77;;;2.80;;
5121;SDS011;2563;52.242;7.956;2022-10-16T07:37:38;6.13;;;2.87;;
5121;SDS011;2563;52.242;7.956;2022-10-16T07:40:04;7.53;;;2.50;;
5121;SDS011;2563;52.242;7.956;2022-10-16T07:42:29;6.50;;;2.63;;
5121;SDS011;2563;52.242;7.956;2022-10-16T07:44:55;8.87;;;2.60;;
5121;SDS011;2563;52.242;7.956;2022-10-16T07:47:20;7.93;;;2.90;;
5121;SDS011;2563;52.242;7.956;2022-10-16T07:49:46;10.20;;;2.63;;
5121;SDS011;2563;52.242;7.956;2022-10-16T07:52:12;6.20;;;2.10;;
5121;SDS011;2563;52.242;7.956;2022-10-16T07:54:38;5.10;;;2.37;;
5121;SDS011;2563;52.242;7.956;2022-10-16T07:57:04;6.13;;;2.80;;
5121;SDS011;2563;52.242;7.956;2022-10-16T07:59:29;6.87;;;2.30;;
5121;SDS011;2563;52.242;7.956;2022-10-16T08:01:55;5.00;;;2.03;;
5121;SDS011;2563;52.242;7.956;2022-10-16T08:04:46;5.57;;;2.50;;
5121;SDS011;2563;52.242;7.956;2022-10-16T08:07:12;5.23;;;2.63;;
5121;SDS011;2563;52.242;7.956;2022-10-16T08:09:41;6.33;;;2.50;;
5121;SDS011;2563;52.242;7.956;2022-10-16T08:12:07;7.43;;;2.60;;
5121;SDS011;2563;52.242;7.956;2022-10-16T08:14:32;5.57;;;2.30;;
5121;SDS011;2563;52.242;7.956;2022-10-16T08:16:58;9.30;;;2.70;;
5121;SDS011;2563;52.242;7.956;2022-10-16T08:19:23;6.63;;;2.30;;
5121;SDS011;2563;52.242;7.956;2022-10-16T08:21:48;12.10;;;2.70;;
5121;SDS011;2563;52.242;7.956;2022-10-16T08:24:14;6.37;;;2.50;;
5121;SDS011;2563;52.242;7.956;2022-10-16T08:26:39;7.30;;;2.27;;
5121;SDS011;2563;52.242;7.956;2022-10-16T08:29:04;7.13;;;2.90;;
5121;SDS011;2563;52.242;7.956;2022-10-16T08:31:33;5.30;;;2.10;;
5121;SDS011;2563;52.242;7.956;2022-10-16T08:34:46;4.40;;;2.30;;
5121;SDS011;2563;52.242;7.956;2022-10-16T08:37:36;5.93;;;2.10;;
5121;SDS011;2563;52.242;7.956;2022-10-16T08:40:03;7.07;;;1.97;;
5121;SDS011;2563;52.242;7.956;2022-10-16T08:51:40;6.67;;;1.93;;
5121;SDS011;2563;52.242;7.956;2022-10-16T08:54:18;4.87;;;2.37;;
5121;SDS011;2563;52.242;7.956;2022-10-16T08:56:53;5.27;;;2.10;;
5121;SDS011;2563;52.242;7.956;2022-10-16T08:59:20;4.43;;;1.90;;
5121;SDS011;2563;52.242;7.956;2022-10-16T09:01:46;5.70;;;1.97;;
5121;SDS011;2563;52.242;7.956;2022-10-16T09:07:08;6.00;;;1.77;;
5121;SDS011;2563;52.242;7.956;2022-10-16T09:12:40;9.00;;;1.63;;
5121;SDS011;2563;52.242;7.956;2022-10-16T09:15:20;5.60;;;1.40;;
5121;SDS011;2563;52.242;7.956;2022-10-16T09:20:49;4.97;;;1.90;;
5121;SDS011;2563;52.242;7.956;2022-10-16T09:23:32;7.30;;;1.70;;
5121;SDS011;2563;52.242;7.956;2022-10-16T09:26:01;6.03;;;1.90;;
5121;SDS011;2563;52.242;7.956;2022-10-16T09:28:27;5.03;;;1.43;;
5121;SDS011;2563;52.242;7.956;2022-10-16T09:30:52;7.03;;;1.57;;
5121;SDS011;2563;52.242;7.956;2022-10-16T09:33:19;5.37;;;1.97;;
5121;SDS011;2563;52.242;7.956;2022-10-16T09:35:51;5.47;;;1.37;;
5121;SDS011;2563;52.242;7.956;2022-10-16T09:38:23;3.33;;;1.30;;
5121;SDS011;2563;52.242;7.956;2022-10-16T09:40:51;4.20;;;1.13;;
5121;SDS011;2563;52.242;7.956;2022-10-16T09:43:28;10.40;;;1.83;;
5121;SDS011;2563;52.242;7.956;2022-10-16T09:48:39;4.50;;;1.43;;
5121;SDS011;2563;52.242;7.956;2022-10-16T09:51:20;4.10;;;1.30;;
5121;SDS011;2563;52.242;7.956;2022-10-16T09:53:54;5.90;;;1.60;;
5121;SDS011;2563;52.242;7.956;2022-10-16T09:56:26;5.20;;;1.70;;
5121;SDS011;2563;52.242;7.956;2022-10-16T09:58:55;7.33;;;1.73;;
5121;SDS011;2563;52.242;7.956;2022-10-16T10:01:23;5.50;;;1.40;;
5121;SDS011;2563;52.242;7.956;2022-10-16T10:03:55;7.30;;;1.60;;
5121;SDS011;2563;52.242;7.956;2022-10-16T10:06:31;5.00;;;1.50;;
5121;SDS011;2563;52.242;7.956;2022-10-16T10:11:50;4.60;;;1.40;;
5121;SDS011;2563;52.242;7.956;2022-10-16T10:16:49;4.70;;;1.27;;
5121;SDS011;2563;52.242;7.956;2022-10-16T10:19:17;7.33;;;2.03;;
5121;SDS011;2563;52.242;7.956;2022-10-16T10:21:47;4.80;;;1.40;;
5121;SDS011;2563;52.242;7.956;2022-10-16T10:24:14;5.53;;;1.50;;
5121;SDS011;2563;52.242;7.956;2022-10-16T10:26:44;3.40;;;1.40;;
5121;SDS011;2563;52.242;7.956;2022-10-16T10:32:11;8.20;;;1.63;;
5121;SDS011;2563;52.242;7.956;2022-10-16T10:34:55;5.33;;;1.50;;
5121;SDS011;2563;52.242;7.956;2022-10-16T10:40:34;3.87;;;1.10;;
5121;SDS011;2563;52.242;7.956;2022-10-16T10:51:00;4.10;;;0.97;;
5121;SDS011;2563;52.242;7.956;2022-10-16T11:05:06;5.53;;;1.57;;
5121;SDS011;2563;52.242;7.956;2022-10-16T11:08:35;4.30;;;1.30;;
5121;SDS011;2563;52.242;7.956;2022-10-16T11:16:15;4.03;;;1.50;;
5121;SDS011;2563;52.242;7.956;2022-10-16T11:18:48;4.97;;;1.60;;
5121;SDS011;2563;52.242;7.956;2022-10-16T11:21:37;5.73;;;1.20;;
5121;SDS011;2563;52.242;7.956;2022-10-16T11:24:34;5.50;;;1.87;;
5121;SDS011;2563;52.242;7.956;2022-10-16T11:27:11;8.30;;;2.20;;
5121;SDS011;2563;52.242;7.956;2022-10-16T11:29:44;5.53;;;2.67;;
5121;SDS011;2563;52.242;7.956;2022-10-16T11:32:28;7.40;;;2.43;;
5121;SDS011;2563;52.242;7.956;2022-10-16T11:35:00;5.40;;;2.77;;
5121;SDS011;2563;52.242;7.956;2022-10-16T11:37:36;6.40;;;1.90;;
5121;SDS011;2563;52.242;7.956;2022-10-16T11:43:06;7.43;;;3.07;;
5121;SDS011;2563;52.242;7.956;2022-10-16T11:45:41;5.10;;;2.40;;
5121;SDS011;2563;52.242;7.956;2022-10-16T11:50:54;7.60;;;2.53;;
5121;SDS011;2563;52.242;7.956;2022-10-16T11:53:26;7.47;;;2.73;;
5121;SDS011;2563;52.242;7.956;2022-10-16T11:56:12;5.40;;;2.57;;
5121;SDS011;2563;52.242;7.956;2022-10-16T11:58:41;4.23;;;2.17;;
5121;SDS011;2563;52.242;7.956;2022-10-16T12:01:14;5.20;;;2.40;;
5121;SDS011;2563;52.242;7.956;2022-10-16T12:04:02;4.80;;;2.03;;
5121;SDS011;2563;52.242;7.956;2022-10-16T12:09:31;5.57;;;2.20;;
5121;SDS011;2563;52.242;7.956;2022-10-16T12:12:00;7.17;;;2.20;;
5121;SDS011;2563;52.242;7.956;2022-10-16T12:16:55;4.00;;;1.83;;
5121;SDS011;2563;52.242;7.956;2022-10-16T12:19:26;6.57;;;2.43;;
5121;SDS011;2563;52.242;7.956;2022-10-16T12:21:54;7.20;;;2.30;;
5121;SDS011;2563;52.242;7.956;2022-10-16T12:24:27;8.07;;;2.40;;
5121;SDS011;2563;52.242;7.956;2022-10-16T12:26:53;5.27;;;1.90;;
5121;SDS011;2563;52.242;7.956;2022-10-16T12:32:05;5.00;;;1.93;;
5121;SDS011;2563;52.242;7.956;2022-10-16T12:34:46;4.27;;;1.77;;
5121;SDS011;2563;52.242;7.956;2022-10-16T12:37:14;3.90;;;1.70;;
5121;SDS011;2563;52.242;7.956;2022-10-16T12:39:46;6.83;;;1.80;;
5121;SDS011;2563;52.242;7.956;2022-10-16T12:42:21;4.80;;;2.13;;
5121;SDS011;2563;52.242;7.956;2022-10-16T12:44:53;5.63;;;1.50;;
5121;SDS011;2563;52.242;7.956;2022-10-16T12:49:57;2.90;;;1.30;;
5121;SDS011;2563;52.242;7.956;2022-10-16T12:52:36;11.53;;;2.73;;
5121;SDS011;2563;52.242;7.956;2022-10-16T12:55:04;3.20;;;1.10;;
5121;SDS011;2563;52.242;7.956;2022-10-16T12:57:44;5.97;;;1.40;;
5121;SDS011;2563;52.242;7.956;2022-10-16T13:00:36;7.50;;;1.70;;
5121;SDS011;2563;52.242;7.956;2022-10-16T13:19:51;11.27;;;3.97;;
5121;SDS011;2563;52.242;7.956;2022-10-16T13:22:31;5.00;;;1.70;;
5121;SDS011;2563;52.242;7.956;2022-10-16T13:25:48;8.20;;;1.93;;
5121;SDS011;2563;52.242;7.956;2022-10-16T13:28:00;4.10;;;1.60;;
5121;SDS011;2563;52.242;7.956;2022-10-16T13:30:27;4.17;;;1.10;;
5121;SDS011;2563;52.242;7.956;2022-10-16T13:32:58;5.00;;;1.60;;
5121;SDS011;2563;52.242;7.956;2022-10-16T13:35:37;4.50;;;1.40;;
5121;SDS011;2563;52.242;7.956;2022-10-16T13:43:18;4.90;;;2.77;;
5121;SDS011;2563;52.242;7.956;2022-10-16T13:45:54;6.13;;;1.10;;
5121;SDS011;2563;52.242;7.956;2022-10-16T13:48:24;5.47;;;1.90;;
5121;SDS011;2563;52.242;7.956;2022-10-16T13:53:45;4.03;;;1.30;;
5121;SDS011;2563;52.242;7.956;2022-10-16T13:56:12;4.17;;;1.13;;
5121;SDS011;2563;52.242;7.956;2022-10-16T13:58:40;5.67;;;1.30;;
5121;SDS011;2563;52.242;7.956;2022-10-16T14:01:13;4.27;;;1.40;;
5121;SDS011;2563;52.242;7.956;2022-10-16T14:03:40;7.90;;;1.80;;
5121;SDS011;2563;52.242;7.956;2022-10-16T14:06:06;7.47;;;1.57;;
5121;SDS011;2563;52.242;7.956;2022-10-16T14:08:41;6.50;;;2.00;;
5121;SDS011;2563;52.242;7.956;2022-10-16T14:11:10;10.67;;;3.00;;
5121;SDS011;2563;52.242;7.956;2022-10-16T14:13:38;4.83;;;1.83;;
5121;SDS011;2563;52.242;7.956;2022-10-16T14:16:09;5.97;;;2.10;;
5121;SDS011;2563;52.242;7.956;2022-10-16T14:18:40;5.03;;;1.23;;
5121;SDS011;2563;52.242;7.956;2022-10-16T14:21:05;5.73;;;1.90;;
5121;SDS011;2563;52.242;7.956;2022-10-16T14:23:34;5.20;;;1.67;;
5121;SDS011;2563;52.242;7.956;2022-10-16T14:28:33;4.80;;;1.70;;
5121;SDS011;2563;52.242;7.956;2022-10-16T14:31:00;4.87;;;1.80;;
5121;SDS011;2563;52.242;7.956;2022-10-16T14:36:13;6.33;;;1.27;;
5121;SDS011;2563;52.242;7.956;2022-10-16T14:39:04;6.73;;;1.60;;
5121;SDS011;2563;52.242;7.956;2022-10-16T14:41:32;3.30;;;1.17;;
5121;SDS011;2563;52.242;7.956;2022-10-16T14:44:05;6.20;;;2.10;;
5121;SDS011;2563;52.242;7.956;2022-10-16T14:46:32;8.90;;;2.30;;
5121;SDS011;2563;52.242;7.956;2022-10-16T14:49:02;6.43;;;1.87;;
5121;SDS011;2563;52.242;7.956;2022-10-16T14:51:29;6.10;;;1.90;;
5121;SDS011;2563;52.242;7.956;2022-10-16T14:53:55;6.40;;;1.50;;
5121;SDS011;2563;52.242;7.956;2022-10-16T14:56:24;7.33;;;1.40;;
5121;SDS011;2563;52.242;7.956;2022-10-16T14:58:52;5.07;;;1.70;;
5121;SDS011;2563;52.242;7.956;2022-10-16T15:01:18;4.90;;;1.70;;
5121;SDS011;2563;52.242;7.956;2022-10-16T15:03:44;3.00;;;1.10;;
5121;SDS011;2563;52.242;7.956;2022-10-16T15:06:13;4.83;;;1.90;;
5121;SDS011;2563;52.242;7.956;2022-10-16T15:08:40;6.53;;;1.83;;
5121;SDS011;2563;52.242;7.956;2022-10-16T15:11:10;3.80;;;1.20;;
5121;SDS011;2563;52.242;7.956;2022-10-16T15:13:38;5.73;;;1.20;;
5121;SDS011;2563;52.242;7.956;2022-10-16T15:16:04;6.80;;;1.60;;
5121;SDS011;2563;52.242;7.956;2022-10-16T15:18:29;8.20;;;1.97;;
5121;SDS011;2563;52.242;7.956;2022-10-16T15:20:55;6.60;;;1.50;;
5121;SDS011;2563;52.242;7.956;2022-10-16T15:23:21;4.20;;;1.20;;
5121;SDS011;2563;52.242;7.956;2022-10-16T15:25:51;3.20;;;1.30;;
5121;SDS011;2563;52.242;7.956;2022-10-16T15:28:18;4.20;;;1.20;;
5121;SDS011;2563;52.242;7.956;2022-10-16T15:30:45;6.37;;;1.50;;
5121;SDS011;2563;52.242;7.956;2022-10-16T15:33:12;5.33;;;2.17;;
5121;SDS011;2563;52.242;7.956;2022-10-16T15:35:42;5.50;;;2.10;;
5121;SDS011;2563;52.242;7.956;2022-10-16T15:38:11;4.70;;;2.67;;
5121;SDS011;2563;52.242;7.956;2022-10-16T15:40:38;8.60;;;5.17;;
5121;SDS011;2563;52.242;7.956;2022-10-16T15:43:04;6.23;;;2.10;;
5121;SDS011;2563;52.242;7.956;2022-10-16T15:45:29;2.63;;;1.10;;
5121;SDS011;2563;52.242;7.956;2022-10-16T15:47:54;3.07;;;1.60;;
5121;SDS011;2563;52.242;7.956;2022-10-16T15:50:20;5.00;;;1.73;;
5121;SDS011;2563;52.242;7.956;2022-10-16T15:52:45;4.30;;;1.80;;
5121;SDS011;2563;52.242;7.956;2022-10-16T15:55:11;7.10;;;2.10;;
5121;SDS011;2563;52.242;7.956;2022-10-16T15:57:38;5.90;;;2.17;;
5121;SDS011;2563;52.242;7.956;2022-10-16T16:00:15;5.73;;;2.40;;
5121;SDS011;2563;52.242;7.956;2022-10-16T16:02:48;5.50;;;1.90;;
5121;SDS011;2563;52.242;7.956;2022-10-16T16:05:16;10.33;;;2.07;;
5121;SDS011;2563;52.242;7.956;2022-10-16T16:07:41;4.90;;;2.03;;
5121;SDS011;2563;52.242;7.956;2022-10-16T16:10:07;38.67;;;22.17;;
5121;SDS011;2563;52.242;7.956;2022-10-16T16:12:35;33.37;;;14.67;;
5121;SDS011;2563;52.242;7.956;2022-10-16T16:15:01;23.53;;;11.20;;
5121;SDS011;2563;52.242;7.956;2022-10-16T16:17:27;8.40;;;4.50;;
5121;SDS011;2563;52.242;7.956;2022-10-16T16:19:53;6.47;;;2.93;;
5121;SDS011;2563;52.242;7.956;2022-10-16T16:22:18;5.27;;;2.20;;
5121;SDS011;2563;52.242;7.956;2022-10-16T16:24:43;10.23;;;2.10;;
5121;SDS011;2563;52.242;7.956;2022-10-16T16:27:09;13.83;;;3.00;;
5121;SDS011;2563;52.242;7.956;2022-10-16T16:29:34;5.50;;;1.60;;
5121;SDS011;2563;52.242;7.956;2022-10-16T16:32:00;10.40;;;4.33;;
5121;SDS011;2563;52.242;7.956;2022-10-16T16:34:26;8.53;;;2.23;;
5121;SDS011;2563;52.242;7.956;2022-10-16T16:36:52;7.30;;;3.40;;
5121;SDS011;2563;52.242;7.956;2022-10-16T16:39:18;12.73;;;3.00;;
5121;SDS011;2563;52.242;7.956;2022-10-16T16:41:43;4.40;;;2.13;;
5121;SDS011;2563;52.242;7.956;2022-10-16T16:44:11;3.43;;;1.90;;
5121;SDS011;2563;52.242;7.956;2022-10-16T16:46:37;3.37;;;1.60;;
5121;SDS011;2563;52.242;7.956;2022-10-16T16:49:05;4.17;;;2.00;;
5121;SDS011;2563;52.242;7.956;2022-10-16T16:51:31;7.23;;;2.73;;
5121;SDS011;2563;52.242;7.956;2022-10-16T16:53:58;5.30;;;2.30;;
5121;SDS011;2563;52.242;7.956;2022-10-16T16:56:24;9.50;;;3.00;;
5121;SDS011;2563;52.242;7.956;2022-10-16T16:58:51;5.43;;;2.50;;
5121;SDS011;2563;52.242;7.956;2022-10-16T17:01:20;11.33;;;3.07;;
5121;SDS011;2563;52.242;7.956;2022-10-16T17:03:47;8.03;;;2.80;;
5121;SDS011;2563;52.242;7.956;2022-10-16T17:06:16;10.80;;;3.83;;
5121;SDS011;2563;52.242;7.956;2022-10-16T17:08:42;7.80;;;3.80;;
5121;SDS011;2563;52.242;7.956;2022-10-16T17:11:15;13.90;;;3.60;;
5121;SDS011;2563;52.242;7.956;2022-10-16T17:13:43;6.63;;;3.70;;
5121;SDS011;2563;52.242;7.956;2022-10-16T17:16:08;9.50;;;3.90;;
5121;SDS011;2563;52.242;7.956;2022-10-16T17:18:34;13.03;;;4.30;;
5121;SDS011;2563;52.242;7.956;2022-10-16T17:21:03;10.30;;;4.47;;
5121;SDS011;2563;52.242;7.956;2022-10-16T17:23:31;11.83;;;4.50;;
5121;SDS011;2563;52.242;7.956;2022-10-16T17:26:02;11.40;;;5.00;;
5121;SDS011;2563;52.242;7.956;2022-10-16T17:28:32;10.30;;;4.00;;